DW7281 Weather Reports


time (UTC)temp
F
wind
direction
speed
knots
gust
knots
rain 1hr
in
rain 24hr
in
rain mn
in
humidity
%
barometer
mb
20221207235038 79 267 2.6 9.6 0.00 0.48 0.44 64 1009.0
20221207234552 79 267 4.3 9.6 0.00 0.48 0.44 65 1009.2
20221207234038 79 241 3.5 10.4 0.00 0.48 0.44 63 1009.2
20221207233536 79 209 4.3 10.4 0.00 0.48 0.44 64 1009.3
20221207233051 79 311 4.3 10.4 0.00 0.48 0.44 65 1009.4
20221207232535 78 284 5.2 10.4 0.00 0.48 0.44 66 1009.4
20221207232038 78 184 2.6 8.7 0.00 0.48 0.44 69 1009.6
20221207231547 77 206 2.6 7.8 0.00 0.48 0.44 69 1009.5
20221207231038 77 0 2.6 7.8 0.00 0.48 0.44 69 1009.6
20221207230538 77 156 2.6 7.8 0.00 0.48 0.44 70 1009.6
20221207230052 77 182 2.6 10.4 0.00 0.48 0.44 69 1009.8
20221207225538 77 165 4.3 10.4 0.00 0.48 0.44 69 1009.6
20221207225036 77 164 2.6 8.7 0.00 0.48 0.44 69 1009.6
20221207224554 76 150 0.9 7.0 0.00 0.48 0.44 70 1009.6
20221207224038 76 230 2.6 7.8 0.00 0.48 0.44 72 1009.6
20221207223538 76 167 2.6 8.7 0.00 0.48 0.44 71 1009.6
20221207223052 75 188 2.6 8.7 0.00 0.48 0.44 72 1009.4
20221207222538 75 169 2.6 6.1 0.00 0.48 0.44 71 1009.5
20221207222041 76 160 2.6 9.6 0.00 0.48 0.44 69 1009.3
20221207221559 75 182 3.5 9.6 0.00 0.48 0.44 71 1009.3
20221207221038 75 171 1.7 7.0 0.00 0.48 0.44 71 1009.3
20221207220540 75 199 1.7 7.0 0.00 0.48 0.44 71 1009.2
20221207220102 76 198 1.7 7.0 0.00 0.48 0.44 69 1009.3
20221207215538 76 213 2.6 7.8 0.00 0.48 0.44 69 1009.1
20221207215037 75 217 3.5 7.8 0.00 0.48 0.44 68 1009.1
20221207214553 75 192 1.7 5.2 0.00 0.48 0.44 70 1009.0
20221207214039 75 204 1.7 7.0 0.00 0.48 0.44 69 1008.9
20221207213539 74 210 0.9 7.0 0.00 0.48 0.44 70 1008.9
20221207213049 74 210 2.6 7.0 0.00 0.48 0.44 68 1008.9
20221207212535 74 184 0.9 2.6 0.00 0.48 0.44 69 1008.9
20221207212039 73 189 0.0 3.5 0.00 0.48 0.44 71 1008.9
20221207211548 73 236 0.9 4.3 0.00 0.48 0.44 70 1008.7
20221207211040 73 0 0.0 6.1 0.00 0.48 0.44 72 1008.1
20221207210537 72 254 0.9 9.6 0.00 0.48 0.44 73 1008.2
20221207210051 72 322 2.6 10.4 0.00 0.48 0.44 73 1008.1
20221207205539 72 338 2.6 10.4 0.00 0.48 0.44 73 1008.0
20221207205038 71 297 3.5 10.4 0.00 0.48 0.44 73 1008.0
20221207204604 71 320 3.5 9.6 0.00 0.48 0.44 74 1007.9
20221207204039 70 229 2.6 9.6 0.00 0.48 0.44 75 1007.8
20221207203540 70 334 3.5 9.6 0.00 0.48 0.44 75 1007.7
20221207203045 70 261 3.5 9.6 0.00 0.48 0.44 76 1007.8
20221207202538 69 256 3.5 9.6 0.00 0.48 0.44 76 1007.8
20221207202039 69 345 3.5 10.4 0.00 0.48 0.44 77 1007.6
20221207201603 69 19 4.3 10.4 0.00 0.48 0.44 77 1007.7
20221207201038 69 0 2.6 12.2 0.00 0.48 0.44 79 1007.5
20221207200542 68 319 2.6 12.2 0.00 0.48 0.44 79 1007.5
20221207200052 68 319 2.6 9.6 0.00 0.48 0.44 80 1007.5
20221207195538 68 322 4.3 9.6 0.00 0.48 0.44 80 1007.5
20221207195038 67 306 3.5 9.6 0.00 0.48 0.44 81 1007.4
20221207194558 66 287 3.5 8.7 0.00 0.48 0.44 83 1007.3
20221207194039 65 295 1.7 8.7 0.00 0.48 0.44 84 1007.2
20221207193539 65 336 1.7 8.7 0.00 0.48 0.44 84 1007.0
20221207193108 64 329 1.7 7.8 0.00 0.48 0.44 84 1006.8
20221207192535 64 271 0.9 7.8 0.00 0.48 0.44 84 1006.9
20221207192039 63 250 0.9 8.7 0.00 0.48 0.44 85 1006.8
20221207191555 63 271 1.7 8.7 0.00 0.48 0.44 85 1006.8
20221207191039 63 267 0.0 8.7 0.00 0.48 0.44 85 1006.7
20221207190541 63 0 0.9 8.7 0.00 0.48 0.44 85 1006.6
20221207190055 63 268 2.6 8.7 0.00 0.48 0.44 85 1006.3
20221207185539 62 296 1.7 7.0 0.00 0.48 0.44 85 1006.1
20221207185038 62 252 0.0 7.0 0.01 0.48 0.44 86 1005.9
20221207184554 62 0 0.9 6.1 0.01 0.48 0.44 86 1005.9
20221207184038 62 252 0.9 6.1 0.03 0.48 0.44 86 1005.6
20221207183538 62 0 0.0 7.8 0.04 0.48 0.44 87 1005.7
20221207183052 62 0 2.6 13.9 0.13 0.48 0.44 87 1005.5
20221207182540 62 0 2.6 13.9 0.37 0.48 0.44 87 1005.9
20221207182039 62 0 4.3 13.9 0.37 0.48 0.44 88 1005.9
20221207181559 62 259 5.2 13.0 0.37 0.48 0.44 89 1006.0
20221207181040 62 277 4.3 19.1 0.37 0.48 0.44 89 1005.9
20221207180539 63 265 7.0 19.1 0.37 0.48 0.44 89 1006.0
20221207180051 64 273 6.1 16.5 0.37 0.48 0.44 91 1005.5
20221207175539 64 281 5.2 11.3 0.36 0.47 0.43 92 1006.8
20221207175038 63 320 3.5 9.6 0.36 0.47 0.43 93 1006.8
20221207174549 63 261 0.0 5.2 0.36 0.47 0.43 93 1007.3
20221207174039 63 297 0.0 8.7 0.34 0.45 0.41 92 1007.4
20221207173539 64 334 1.7 8.7 0.33 0.44 0.40 92 1007.8
20221207173049 64 0 3.5 8.7 0.23 0.34 0.30 91 1009.0
20221207172539 64 0 0.0 1.7 0.00 0.11 0.07 90 1008.1
20221207172041 64 0 0.0 0.0 0.00 0.11 0.07 90 1007.2
20221207171553 64 0 0.0 0.0 0.00 0.11 0.07 90 1007.2
20221207171039 64 0 0.0 0.0 0.00 0.11 0.07 90 1007.3
20221207170539 64 0 0.0 0.9 0.00 0.11 0.07 89 1007.6
20221207170059 64 0 0.0 1.7 0.00 0.11 0.07 88 1007.9
20221207165538 64 0 0.0 2.6 0.00 0.11 0.07 88 1008.1
20221207165039 64 0 0.0 7.8 0.00 0.11 0.07 88 1008.3
20221207164551 65 142 0.9 17.4 0.00 0.11 0.07 87 1008.5
20221207164038 65 141 0.0 17.4 0.00 0.11 0.07 88 1008.6
20221207163539 65 162 5.2 17.4 0.00 0.11 0.07 89 1009.2
20221207163046 65 163 0.0 0.0 0.00 0.11 0.07 90 1008.7
20221207162540 65 0 0.0 1.7 0.00 0.11 0.07 91 1007.9
20221207162041 64 0 0.0 1.7 0.00 0.11 0.07 92 1007.8
20221207161551 64 0 0.0 0.0 0.03 0.11 0.07 92 1008.0
20221207161040 64 0 0.0 0.0 0.03 0.11 0.07 92 1008.0
20221207160538 64 0 0.0 0.0 0.03 0.11 0.07 92 1007.9
20221207160054 64 0 0.0 0.0 0.03 0.11 0.07 92 1008.0
20221207155537 64 0 0.0 0.0 0.03 0.11 0.07 91 1008.1
20221207155038 64 0 0.0 0.0 0.03 0.11 0.07 91 1008.5
20221207154546 64 0 0.0 0.0 0.03 0.11 0.07 90 1008.9
20221207154044 64 0 0.0 0.0 0.07 0.11 0.07 89 1009.6
20221207153540 64 0 0.0 0.0 0.07 0.11 0.07 89 1009.2
20221207153054 64 0 0.0 0.0 0.07 0.11 0.07 88 1009.3
20221207152538 65 0 0.0 0.0 0.07 0.11 0.07 88 1009.5
20221207152038 65 0 0.0 0.0 0.05 0.09 0.05 87 1009.6
20221207151552 65 0 0.0 5.2 0.03 0.07 0.03 86 1009.8
20221207151039 65 0 0.9 5.2 0.03 0.07 0.03 86 1009.9
20221207150539 66 0 0.0 0.0 0.03 0.07 0.03 85 1009.4
20221207150331 66 0 0.0 5.2 0.03 0.07 0.03 84 1009.1
20221207145544 66 0 0.0 5.2 0.03 0.07 0.03 83 1009.3
20221207145038 66 0 0.0 2.6 0.03 0.07 0.03 85 1009.5
20221207144613 67 0 0.0 1.7 0.03 0.07 0.03 82 1009.6
20221207144038 67 0 0.0 0.0 0.00 0.03 0.00 78 1009.8
20221207143536 67 0 0.0 2.6 0.00 0.03 0.00 77 1009.4
20221207143048 67 0 0.0 3.5 0.00 0.03 0.00 77 1009.3
20221207142542 67 0 0.0 7.0 0.00 0.03 0.00 77 1009.2
20221207142039 67 0 0.0 7.0 0.00 0.03 0.00 80 1009.5
20221207141540 67 0 0.0 2.6 0.00 0.03 0.00 81 1009.6
20221207141041 67 0 0.0 2.6 0.00 0.03 0.00 81 1009.3
20221207140538 67 0 0.0 0.0 0.00 0.03 0.00 79 1009.5
20221207140042 67 0 0.0 0.9 0.00 0.03 0.00 78 1009.7
20221207135539 67 0 0.0 0.9 0.00 0.03 0.03 78 1009.8
20221207135041 68 0 0.0 4.3 0.00 0.03 0.03 77 1009.8
20221207134555 68 0 0.0 4.3 0.00 0.03 0.03 78 1009.8
20221207134038 67 0 0.0 5.2 0.00 0.03 0.03 78 1010.2
20221207133538 67 298 0.0 5.2 0.00 0.03 0.03 81 1010.3
20221207133040 68 321 0.9 5.2 0.00 0.03 0.03 80 1010.2
20221207132538 68 0 0.0 0.0 0.00 0.03 0.03 81 1010.1
20221207132038 68 0 0.0 0.0 0.00 0.03 0.03 80 1010.3
20221207131547 68 0 0.0 0.0 0.00 0.03 0.03 78 1010.0
20221207131038 68 0 0.0 0.0 0.00 0.03 0.03 79 1010.1
20221207130539 67 0 0.0 0.0 0.00 0.03 0.03 79 1010.2
20221207130057 67 0 0.0 0.0 0.00 0.03 0.03 80 1010.3
20221207125538 67 0 0.0 0.0 0.00 0.03 0.03 79 1010.7
20221207125040 67 0 0.0 0.0 0.00 0.03 0.03 78 1010.3
20221207124552 67 0 0.0 0.0 0.00 0.03 0.03 78 1010.1
20221207124038 67 0 0.0 0.0 0.00 0.03 0.03 77 1009.8
20221207123538 67 0 0.0 0.9 0.00 0.03 0.03 77 1009.9
20221207123053 67 0 0.0 0.9 0.00 0.03 0.03 78 1010.0
20221207122538 67 0 0.0 4.3 0.00 0.03 0.03 78 1010.2
20221207122041 67 0 0.0 4.3 0.00 0.03 0.03 77 1010.3
20221207121552 67 0 0.0 4.3 0.00 0.03 0.03 78 1010.7
20221207121038 67 0 0.0 0.0 0.00 0.03 0.03 79 1010.3
20221207120539 68 0 0.0 0.0 0.00 0.03 0.03 78 1010.2
20221207120056 68 0 0.0 0.9 0.00 0.03 0.03 78 1010.1
20221207115543 68 0 0.0 0.9 0.00 0.03 0.03 76 1009.8
20221207115041 68 0 0.0 6.1 0.00 0.03 0.03 75 1009.8
20221207114556 68 0 0.0 6.1 0.00 0.03 0.03 74 1010.0
20221207114039 69 15 0.0 9.6 0.02 0.03 0.03 75 1009.9
20221207113538 68 0 1.7 9.6 0.03 0.03 0.03 76 1009.6
20221207113047 68 0 0.0 0.0 0.03 0.03 0.03 81 1009.8
20221207112541 67 0 0.0 0.0 0.03 0.03 0.03 83 1009.8
20221207112043 67 0 0.0 4.3 0.03 0.03 0.03 83 1009.1
20221207111551 68 0 0.0 4.3 0.03 0.03 0.03 80 1009.0
20221207111043 68 34 0.0 3.5 0.03 0.03 0.03 78 1009.2
20221207110541 68 0 0.0 0.0 0.03 0.03 0.03 79 1009.9
20221207110051 68 0 0.0 0.0 0.03 0.03 0.03 80 1010.2
20221207105539 68 0 0.0 0.0 0.03 0.03 0.03 79 1010.5
20221207105041 69 0 0.0 8.7 0.03 0.03 0.03 75 1010.4
20221207104549 71 0 0.0 10.4 0.03 0.03 0.03 70 1010.8
20221207104041 72 149 3.5 15.6 0.01 0.01 0.01 64 1011.4
20221207103537 75 196 7.0 20.0 0.00 0.00 0.00 57 1011.6
20221207103047 78 188 7.8 20.0 0.00 0.00 0.00 50 1011.3
20221207102540 80 216 0.9 7.0 0.00 0.00 0.00 39 1010.7
20221207102045 79 0 0.0 0.0 0.00 0.00 0.00 40 1009.6
20221207101548 79 0 0.0 0.0 0.00 0.00 0.00 41 1009.1
20221207101040 79 0 0.0 0.0 0.00 0.00 0.00 38 1009.1
20221207100538 79 0 0.0 0.0 0.00 0.00 0.00 43 1009.0
20221207100049 79 0 0.0 0.0 0.00 0.00 0.00 43 1009.1
20221207095540 79 0 0.0 0.0 0.00 0.00 0.00 43 1009.0
20221207095042 79 0 0.0 0.0 0.00 0.00 0.00 45 1008.9
20221207094552 78 0 0.0 0.0 0.00 0.00 0.00 43 1008.9
20221207094108 79 0 0.0 0.0 0.00 0.00 0.00 43 1008.8
20221207093538 79 0 0.0 0.0 0.00 0.00 0.00 42 1008.8
20221207093047 79 0 0.0 0.0 0.00 0.00 0.00 42 1008.6
20221207092538 79 0 0.0 0.0 0.00 0.00 0.00 43 1008.5
20221207092037 80 0 0.0 0.0 0.00 0.00 0.00 43 1008.3
20221207091553 80 0 0.0 0.0 0.00 0.00 0.00 41 1008.3
20221207091039 80 0 0.0 0.0 0.00 0.00 0.00 41 1008.2
20221207090539 80 0 0.0 0.0 0.00 0.00 0.00 42 1008.3
20221207090049 80 0 0.0 0.0 0.00 0.00 0.00 42 1008.3
20221207085538 81 0 0.0 0.0 0.00 0.00 0.00 41 1008.5
20221207085037 81 0 0.0 0.0 0.00 0.00 0.00 40 1008.5
20221207084554 81 0 0.0 0.0 0.00 0.00 0.00 38 1008.6
20221207084039 82 0 0.0 0.0 0.00 0.00 0.00 36 1008.7
20221207083537 82 0 0.0 0.0 0.00 0.00 0.00 36 1008.6
20221207083042 82 0 0.0 1.7 0.00 0.00 0.00 36 1008.6
20221207082537 82 0 0.0 1.7 0.00 0.00 0.00 35 1008.5
20221207082041 83 0 0.0 0.0 0.00 0.00 0.00 34 1008.5
20221207081543 83 0 0.0 0.9 0.00 0.00 0.00 34 1008.5
20221207081034 84 0 0.0 2.6 0.00 0.00 0.00 34 1008.3
20221207080540 84 0 0.0 2.6 0.00 0.00 0.00 32 1008.4
20221207080101 85 222 0.0 5.2 0.00 0.00 0.00 31 1008.4
20221207075535 85 0 0.0 5.2 0.00 0.00 0.00 31 1008.4
20221207075038 86 191 0.9 7.8 0.00 0.00 0.00 30 1008.4
20221207074544 86 209 0.9 7.8 0.00 0.00 0.00 29 1008.4
20221207074042 86 240 0.9 7.0 0.00 0.00 0.00 29 1008.3
20221207073536 87 217 1.7 9.6 0.00 0.00 0.00 29 1008.2
20221207073050 87 220 2.6 9.6 0.00 0.00 0.00 29 1008.2
20221207072538 87 233 3.5 9.6 0.00 0.00 0.00 28 1008.2
20221207072034 87 187 2.6 7.8 0.00 0.00 0.00 28 1008.0
20221207071558 88 203 2.6 7.8 0.00 0.00 0.00 27 1008.0
20221207071038 88 198 2.6 7.0 0.00 0.00 0.00 28 1008.0
20221207070539 88 211 1.7 7.0 0.00 0.00 0.00 28 1008.0
20221207070054 88 209 2.6 7.8 0.00 0.00 0.00 28 1008.0
20221207065538 88 218 3.5 9.6 0.00 0.00 0.00 28 1008.1
20221207065035 89 239 2.6 9.6 0.00 0.00 0.00 28 1008.2
20221207064551 89 209 4.3 9.6 0.00 0.00 0.00 27 1008.1
20221207064037 89 225 5.2 9.6 0.00 0.00 0.00 27 1008.2
20221207063538 89 217 3.5 9.6 0.00 0.00 0.00 27 1008.1
20221207063054 89 202 2.6 8.7 0.00 0.00 0.00 27 1008.1
20221207062543 89 0 0.9 11.3 0.00 0.00 0.00 27 1008.0
20221207062039 88 304 4.3 11.3 0.00 0.00 0.00 27 1008.1
20221207061551 89 209 4.3 8.7 0.00 0.00 0.00 27 1008.1
20221207061039 89 223 3.5 12.2 0.00 0.00 0.00 28 1008.2
20221207060538 89 243 5.2 13.0 0.00 0.00 0.00 27 1008.2
20221207060100 89 230 7.0 13.0 0.00 0.00 0.00 26 1008.3
20221207055538 90 193 4.3 13.0 0.00 0.00 0.00 26 1008.3
20221207055039 90 175 2.6 8.7 0.00 0.00 0.00 28 1008.3
20221207054544 90 211 3.5 8.7 0.00 0.00 0.00 28 1008.2
20221207054039 90 230 2.6 8.7 0.00 0.00 0.00 27 1008.2
20221207053538 90 178 3.5 13.0 0.00 0.00 0.00 27 1008.1
20221207053053 91 195 2.6 13.0 0.00 0.00 0.00 27 1008.3
20221207052541 91 160 5.2 11.3 0.00 0.00 0.00 27 1008.3
20221207052039 90 190 3.5 10.4 0.00 0.00 0.00 27 1008.3
20221207051543 91 169 3.5 10.4 0.00 0.00 0.00 27 1008.6
20221207051041 90 186 4.3 15.6 0.00 0.00 0.00 26 1008.6
20221207050537 91 209 5.2 15.6 0.00 0.00 0.00 27 1008.6
20221207050047 91 165 5.2 14.8 0.00 0.00 0.00 27 1008.7
20221207045539 91 215 2.6 11.3 0.00 0.00 0.00 27 1008.7
20221207045040 90 169 3.5 11.3 0.00 0.00 0.00 27 1008.9
20221207044546 90 218 5.2 12.2 0.00 0.00 0.00 27 1008.9
20221207044039 91 210 4.3 13.0 0.00 0.00 0.00 26 1009.0
20221207043539 90 0 6.1 13.9 0.00 0.00 0.00 27 1009.0
20221207043050 91 194 5.2 13.9 0.00 0.00 0.00 28 1009.0
20221207042543 91 109 5.2 12.2 0.00 0.00 0.00 27 1009.1
20221207042042 91 169 4.3 11.3 0.00 0.00 0.00 28 1009.3
20221207041543 90 229 5.2 11.3 0.00 0.00 0.00 28 1009.3
20221207041038 90 215 7.0 12.2 0.00 0.00 0.00 27 1009.3
20221207040538 90 196 5.2 12.2 0.00 0.00 0.00 29 1009.5
20221207040051 90 166 5.2 14.8 0.00 0.00 0.00 27 1009.5
20221207035538 91 147 7.0 14.8 0.00 0.00 0.00 28 1009.5
20221207035038 91 184 5.2 12.2 0.00 0.00 0.00 29 1009.7
20221207034547 90 208 4.3 12.2 0.00 0.00 0.00 28 1009.6
20221207034039 90 182 4.3 13.9 0.00 0.00 0.00 28 1009.7
20221207033540 91 0 4.3 13.9 0.00 0.00 0.00 27 1009.7
20221207033047 90 173 5.2 13.9 0.00 0.00 0.00 28 1009.8
20221207032538 90 187 6.1 13.9 0.00 0.00 0.00 27 1009.9
20221207032039 90 175 5.2 12.2 0.00 0.00 0.00 28 1010.1
20221207031546 90 206 5.2 12.2 0.00 0.00 0.00 27 1010.0
20221207031041 89 223 1.7 11.3 0.00 0.00 0.00 29 1010.1
20221207030540 89 252 5.2 11.3 0.00 0.00 0.00 27 1010.2
20221207030044 90 217 4.3 14.8 0.00 0.00 0.00 29 1010.2
20221207025541 89 171 7.0 14.8 0.00 0.00 0.00 27 1010.2
20221207025039 89 207 6.1 12.2 0.00 0.00 0.00 28 1010.2
20221207024544 89 212 4.3 11.3 0.00 0.00 0.00 28 1010.3
20221207024038 89 173 5.2 10.4 0.00 0.00 0.00 28 1010.3
20221207023542 89 192 5.2 10.4 0.00 0.00 0.00 28 1010.6
20221207023045 88 262 2.6 13.0 0.00 0.00 0.00 28 1010.7
20221207022538 88 198 5.2 13.0 0.00 0.00 0.00 29 1010.9
20221207022039 88 173 6.1 15.6 0.00 0.00 0.00 29 1011.0
20221207021547 88 250 4.3 15.6 0.00 0.00 0.00 29 1010.9
20221207021040 88 232 7.0 14.8 0.00 0.00 0.00 29 1010.9
20221207020539 87 267 6.1 11.3 0.00 0.00 0.00 29 1011.1
20221207020055 88 209 5.2 11.3 0.00 0.00 0.00 30 1011.1
20221207015539 88 192 5.2 11.3 0.00 0.00 0.00 31 1011.2
20221207015038 87 155 5.2 11.3 0.00 0.00 0.00 30 1011.2
20221207014556 88 178 5.2 13.9 0.00 0.00 0.00 29 1011.3
20221207014038 87 236 5.2 13.9 0.00 0.00 0.00 30 1011.3
20221207013542 87 253 2.6 9.6 0.00 0.00 0.00 30 1011.4
20221207013049 87 215 4.3 9.6 0.00 0.00 0.00 31 1011.5
20221207012539 87 225 2.6 8.7 0.00 0.00 0.00 31 1011.5
20221207012039 87 199 4.3 10.4 0.00 0.00 0.00 31 1011.6
20221207011557 86 190 2.6 11.3 0.00 0.00 0.00 31 1011.6
20221207011039 86 224 3.5 11.3 0.00 0.00 0.00 31 1011.7
20221207010541 85 0 4.3 9.6 0.00 0.00 0.00 33 1011.7
20221207010052 84 209 4.3 9.6 0.00 0.00 0.00 32 1011.8
20221207005540 84 229 0.9 9.6 0.00 0.00 0.00 32 1011.8
20221207005039 84 227 3.5 9.6 0.00 0.00 0.00 30 1011.8
20221207004553 84 214 4.3 10.4 0.00 0.00 0.00 30 1011.7
20221207004039 85 217 4.3 11.3 0.00 0.00 0.00 31 1011.6
20221207003539 85 209 6.1 11.3 0.00 0.00 0.00 32 1011.7
20221207003048 85 173 2.6 7.8 0.00 0.00 0.00 29 1011.7
20221207002537 85 171 2.6 7.8 0.00 0.00 0.00 31 1011.7
20221207002038 84 222 3.5 9.6 0.00 0.00 0.00 31 1011.7
20221207001551 84 159 3.5 9.6 0.00 0.00 0.00 30 1011.8
20221207001038 83 187 3.5 7.8 0.00 0.00 0.00 32 1011.8
20221207000539 84 215 2.6 7.8 0.00 0.00 0.00 31 1011.8
20221207000053 84 177 2.6 7.8 0.00 0.00 0.00 29 1011.9
20221206235539 84 0 2.6 9.6 0.00 0.00 0.00 31 1011.7